sensor_id;sensor_type;location;lat;lon;timestamp;P1;durP1;ratioP1;P2;durP2;ratioP2
24337;SDS011;12457;50.832;4.346;2023-09-19T00:01:28;17.00;;;2.72;;
24337;SDS011;12457;50.832;4.346;2023-09-19T00:03:58;18.35;;;3.78;;
24337;SDS011;12457;50.832;4.346;2023-09-19T00:06:24;16.13;;;3.30;;
24337;SDS011;12457;50.832;4.346;2023-09-19T00:08:51;19.63;;;2.95;;
24337;SDS011;12457;50.832;4.346;2023-09-19T00:11:19;15.13;;;2.83;;
24337;SDS011;12457;50.832;4.346;2023-09-19T00:13:47;13.63;;;3.05;;
24337;SDS011;12457;50.832;4.346;2023-09-19T00:16:14;14.15;;;3.00;;
24337;SDS011;12457;50.832;4.346;2023-09-19T00:18:40;13.05;;;2.92;;
24337;SDS011;12457;50.832;4.346;2023-09-19T00:21:07;14.13;;;2.40;;
24337;SDS011;12457;50.832;4.346;2023-09-19T00:23:35;8.60;;;2.17;;
24337;SDS011;12457;50.832;4.346;2023-09-19T00:26:00;17.15;;;3.10;;
24337;SDS011;12457;50.832;4.346;2023-09-19T00:28:26;11.38;;;2.83;;
24337;SDS011;12457;50.832;4.346;2023-09-19T00:30:52;11.32;;;2.60;;
24337;SDS011;12457;50.832;4.346;2023-09-19T00:33:20;12.05;;;2.80;;
24337;SDS011;12457;50.832;4.346;2023-09-19T00:35:52;21.33;;;2.70;;
24337;SDS011;12457;50.832;4.346;2023-09-19T00:38:24;10.48;;;2.40;;
24337;SDS011;12457;50.832;4.346;2023-09-19T00:40:52;16.30;;;2.58;;
24337;SDS011;12457;50.832;4.346;2023-09-19T00:43:22;15.95;;;2.97;;
24337;SDS011;12457;50.832;4.346;2023-09-19T00:45:50;18.50;;;3.38;;
24337;SDS011;12457;50.832;4.346;2023-09-19T00:48:17;13.25;;;2.60;;
24337;SDS011;12457;50.832;4.346;2023-09-19T00:50:44;18.27;;;3.10;;
24337;SDS011;12457;50.832;4.346;2023-09-19T00:53:13;12.82;;;2.90;;
24337;SDS011;12457;50.832;4.346;2023-09-19T00:55:43;18.33;;;2.95;;
24337;SDS011;12457;50.832;4.346;2023-09-19T00:58:09;20.17;;;2.80;;
24337;SDS011;12457;50.832;4.346;2023-09-19T01:00:35;14.98;;;3.00;;
24337;SDS011;12457;50.832;4.346;2023-09-19T01:03:02;19.52;;;3.33;;
24337;SDS011;12457;50.832;4.346;2023-09-19T01:05:28;21.08;;;3.53;;
24337;SDS011;12457;50.832;4.346;2023-09-19T01:07:55;18.48;;;3.13;;
24337;SDS011;12457;50.832;4.346;2023-09-19T01:10:21;14.88;;;2.83;;
24337;SDS011;12457;50.832;4.346;2023-09-19T01:15:49;18.02;;;2.40;;
24337;SDS011;12457;50.832;4.346;2023-09-19T01:24:22;8.60;;;2.45;;
24337;SDS011;12457;50.832;4.346;2023-09-19T01:30:24;12.00;;;2.45;;
24337;SDS011;12457;50.832;4.346;2023-09-19T01:32:56;22.27;;;2.83;;
24337;SDS011;12457;50.832;4.346;2023-09-19T01:35:24;11.95;;;2.88;;
24337;SDS011;12457;50.832;4.346;2023-09-19T01:37:51;13.35;;;3.15;;
24337;SDS011;12457;50.832;4.346;2023-09-19T01:40:18;18.75;;;2.90;;
24337;SDS011;12457;50.832;4.346;2023-09-19T01:53:06;16.17;;;3.30;;
24337;SDS011;12457;50.832;4.346;2023-09-19T01:55:45;15.98;;;2.80;;
24337;SDS011;12457;50.832;4.346;2023-09-19T02:01:08;23.35;;;3.85;;
24337;SDS011;12457;50.832;4.346;2023-09-19T02:03:43;13.02;;;2.50;;
24337;SDS011;12457;50.832;4.346;2023-09-19T02:06:15;13.48;;;2.80;;
24337;SDS011;12457;50.832;4.346;2023-09-19T02:08:43;15.60;;;2.80;;
24337;SDS011;12457;50.832;4.346;2023-09-19T02:11:12;24.42;;;2.88;;
24337;SDS011;12457;50.832;4.346;2023-09-19T02:13:38;14.55;;;3.00;;
24337;SDS011;12457;50.832;4.346;2023-09-19T02:16:04;19.88;;;2.88;;
24337;SDS011;12457;50.832;4.346;2023-09-19T02:18:31;14.35;;;2.65;;
24337;SDS011;12457;50.832;4.346;2023-09-19T02:21:00;19.98;;;3.67;;
24337;SDS011;12457;50.832;4.346;2023-09-19T02:23:26;16.00;;;2.90;;
24337;SDS011;12457;50.832;4.346;2023-09-19T02:25:53;18.38;;;3.75;;
24337;SDS011;12457;50.832;4.346;2023-09-19T02:28:19;14.98;;;3.15;;
24337;SDS011;12457;50.832;4.346;2023-09-19T02:30:48;15.80;;;2.90;;
24337;SDS011;12457;50.832;4.346;2023-09-19T02:33:15;15.07;;;2.83;;
24337;SDS011;12457;50.832;4.346;2023-09-19T02:35:42;15.40;;;3.33;;
24337;SDS011;12457;50.832;4.346;2023-09-19T02:38:08;17.00;;;2.67;;
24337;SDS011;12457;50.832;4.346;2023-09-19T02:40:36;24.80;;;3.65;;
24337;SDS011;12457;50.832;4.346;2023-09-19T02:43:02;15.18;;;2.78;;
24337;SDS011;12457;50.832;4.346;2023-09-19T02:45:31;16.63;;;2.88;;
24337;SDS011;12457;50.832;4.346;2023-09-19T02:47:57;15.73;;;3.00;;
24337;SDS011;12457;50.832;4.346;2023-09-19T02:50:23;15.82;;;2.92;;
24337;SDS011;12457;50.832;4.346;2023-09-19T02:52:50;13.98;;;3.03;;
24337;SDS011;12457;50.832;4.346;2023-09-19T02:55:16;12.98;;;2.80;;
24337;SDS011;12457;50.832;4.346;2023-09-19T03:00:13;16.65;;;3.33;;
24337;SDS011;12457;50.832;4.346;2023-09-19T03:02:39;15.00;;;3.10;;
24337;SDS011;12457;50.832;4.346;2023-09-19T03:05:06;11.27;;;2.97;;
24337;SDS011;12457;50.832;4.346;2023-09-19T03:07:33;12.60;;;2.70;;
24337;SDS011;12457;50.832;4.346;2023-09-19T03:09:59;13.32;;;2.58;;
24337;SDS011;12457;50.832;4.346;2023-09-19T03:12:26;18.48;;;2.97;;
24337;SDS011;12457;50.832;4.346;2023-09-19T03:14:52;16.27;;;2.53;;
24337;SDS011;12457;50.832;4.346;2023-09-19T03:17:18;14.10;;;2.75;;
24337;SDS011;12457;50.832;4.346;2023-09-19T03:19:45;15.80;;;3.55;;
24337;SDS011;12457;50.832;4.346;2023-09-19T03:22:12;23.35;;;2.40;;
24337;SDS011;12457;50.832;4.346;2023-09-19T03:24:38;13.05;;;2.95;;
24337;SDS011;12457;50.832;4.346;2023-09-19T03:27:04;15.23;;;3.20;;
24337;SDS011;12457;50.832;4.346;2023-09-19T03:29:30;14.05;;;3.08;;
24337;SDS011;12457;50.832;4.346;2023-09-19T03:31:55;10.50;;;2.60;;
24337;SDS011;12457;50.832;4.346;2023-09-19T03:34:21;15.50;;;2.90;;
24337;SDS011;12457;50.832;4.346;2023-09-19T03:36:47;16.48;;;2.38;;
24337;SDS011;12457;50.832;4.346;2023-09-19T03:39:25;16.35;;;2.95;;
24337;SDS011;12457;50.832;4.346;2023-09-19T03:41:51;13.80;;;2.70;;
24337;SDS011;12457;50.832;4.346;2023-09-19T03:44:16;14.77;;;3.05;;
24337;SDS011;12457;50.832;4.346;2023-09-19T03:46:42;20.42;;;3.78;;
24337;SDS011;12457;50.832;4.346;2023-09-19T03:49:08;18.65;;;3.28;;
24337;SDS011;12457;50.832;4.346;2023-09-19T03:51:36;16.80;;;3.17;;
24337;SDS011;12457;50.832;4.346;2023-09-19T03:54:02;13.32;;;2.75;;
24337;SDS011;12457;50.832;4.346;2023-09-19T03:56:29;17.73;;;3.08;;
24337;SDS011;12457;50.832;4.346;2023-09-19T03:58:55;19.95;;;3.33;;
24337;SDS011;12457;50.832;4.346;2023-09-19T04:01:20;16.70;;;2.92;;
24337;SDS011;12457;50.832;4.346;2023-09-19T04:03:47;12.55;;;2.80;;
24337;SDS011;12457;50.832;4.346;2023-09-19T04:06:15;22.83;;;3.33;;
24337;SDS011;12457;50.832;4.346;2023-09-19T04:08:42;14.57;;;3.10;;
24337;SDS011;12457;50.832;4.346;2023-09-19T04:11:09;20.02;;;2.60;;
24337;SDS011;12457;50.832;4.346;2023-09-19T04:13:35;18.23;;;2.90;;
24337;SDS011;12457;50.832;4.346;2023-09-19T04:16:01;15.05;;;3.50;;
24337;SDS011;12457;50.832;4.346;2023-09-19T04:18:29;12.43;;;2.95;;
24337;SDS011;12457;50.832;4.346;2023-09-19T04:20:58;18.00;;;3.08;;
24337;SDS011;12457;50.832;4.346;2023-09-19T04:23:27;16.13;;;3.65;;
24337;SDS011;12457;50.832;4.346;2023-09-19T04:25:53;16.50;;;2.90;;
24337;SDS011;12457;50.832;4.346;2023-09-19T04:28:19;23.00;;;3.75;;
24337;SDS011;12457;50.832;4.346;2023-09-19T04:30:44;18.20;;;3.00;;
24337;SDS011;12457;50.832;4.346;2023-09-19T04:33:10;15.75;;;2.80;;
24337;SDS011;12457;50.832;4.346;2023-09-19T04:35:39;13.40;;;2.50;;
24337;SDS011;12457;50.832;4.346;2023-09-19T04:38:07;21.25;;;2.90;;
24337;SDS011;12457;50.832;4.346;2023-09-19T04:40:33;14.90;;;2.72;;
24337;SDS011;12457;50.832;4.346;2023-09-19T04:42:59;15.70;;;2.65;;
24337;SDS011;12457;50.832;4.346;2023-09-19T04:45:27;16.23;;;3.03;;
24337;SDS011;12457;50.832;4.346;2023-09-19T04:47:54;14.52;;;2.78;;
24337;SDS011;12457;50.832;4.346;2023-09-19T04:50:21;11.10;;;2.58;;
24337;SDS011;12457;50.832;4.346;2023-09-19T04:52:51;14.20;;;2.53;;
24337;SDS011;12457;50.832;4.346;2023-09-19T04:55:17;15.20;;;3.03;;
24337;SDS011;12457;50.832;4.346;2023-09-19T04:57:44;17.83;;;3.03;;
24337;SDS011;12457;50.832;4.346;2023-09-19T05:00:17;14.90;;;2.92;;
24337;SDS011;12457;50.832;4.346;2023-09-19T05:02:52;16.08;;;2.67;;
24337;SDS011;12457;50.832;4.346;2023-09-19T05:05:21;14.80;;;3.13;;
24337;SDS011;12457;50.832;4.346;2023-09-19T05:07:48;14.65;;;2.53;;
24337;SDS011;12457;50.832;4.346;2023-09-19T05:10:14;19.95;;;3.15;;
24337;SDS011;12457;50.832;4.346;2023-09-19T05:12:43;15.07;;;2.53;;
24337;SDS011;12457;50.832;4.346;2023-09-19T05:15:12;15.02;;;2.90;;
24337;SDS011;12457;50.832;4.346;2023-09-19T05:17:51;22.08;;;3.58;;
24337;SDS011;12457;50.832;4.346;2023-09-19T05:23:04;14.10;;;2.38;;
24337;SDS011;12457;50.832;4.346;2023-09-19T05:25:33;18.77;;;2.85;;
24337;SDS011;12457;50.832;4.346;2023-09-19T05:28:03;14.32;;;2.38;;
24337;SDS011;12457;50.832;4.346;2023-09-19T05:30:31;16.30;;;3.35;;
24337;SDS011;12457;50.832;4.346;2023-09-19T05:32:57;19.35;;;3.20;;
24337;SDS011;12457;50.832;4.346;2023-09-19T05:35:23;10.68;;;2.88;;
24337;SDS011;12457;50.832;4.346;2023-09-19T05:37:50;19.23;;;3.40;;
24337;SDS011;12457;50.832;4.346;2023-09-19T05:43:39;12.52;;;2.45;;
24337;SDS011;12457;50.832;4.346;2023-09-19T05:46:06;18.83;;;4.25;;
24337;SDS011;12457;50.832;4.346;2023-09-19T05:48:33;22.77;;;3.60;;
24337;SDS011;12457;50.832;4.346;2023-09-19T05:50:59;12.15;;;2.58;;
24337;SDS011;12457;50.832;4.346;2023-09-19T05:53:26;17.95;;;3.08;;
24337;SDS011;12457;50.832;4.346;2023-09-19T05:55:52;13.80;;;2.88;;
24337;SDS011;12457;50.832;4.346;2023-09-19T05:58:19;21.85;;;2.90;;
24337;SDS011;12457;50.832;4.346;2023-09-19T06:00:45;14.15;;;3.03;;
24337;SDS011;12457;50.832;4.346;2023-09-19T06:03:12;15.52;;;3.13;;
24337;SDS011;12457;50.832;4.346;2023-09-19T06:05:39;13.20;;;2.70;;
24337;SDS011;12457;50.832;4.346;2023-09-19T06:08:05;14.48;;;2.92;;
24337;SDS011;12457;50.832;4.346;2023-09-19T06:10:38;21.15;;;3.03;;
24337;SDS011;12457;50.832;4.346;2023-09-19T06:13:05;16.35;;;2.67;;
24337;SDS011;12457;50.832;4.346;2023-09-19T06:15:34;23.40;;;4.25;;
24337;SDS011;12457;50.832;4.346;2023-09-19T06:18:01;11.50;;;2.65;;
24337;SDS011;12457;50.832;4.346;2023-09-19T06:20:29;12.07;;;2.63;;
24337;SDS011;12457;50.832;4.346;2023-09-19T06:22:56;22.20;;;3.53;;
24337;SDS011;12457;50.832;4.346;2023-09-19T06:25:22;15.35;;;3.30;;
24337;SDS011;12457;50.832;4.346;2023-09-19T06:27:48;18.50;;;2.53;;
24337;SDS011;12457;50.832;4.346;2023-09-19T06:30:17;16.88;;;3.25;;
24337;SDS011;12457;50.832;4.346;2023-09-19T06:32:43;14.90;;;3.30;;
24337;SDS011;12457;50.832;4.346;2023-09-19T06:35:10;13.77;;;2.47;;
24337;SDS011;12457;50.832;4.346;2023-09-19T06:37:39;13.25;;;3.45;;
24337;SDS011;12457;50.832;4.346;2023-09-19T06:42:38;18.55;;;3.03;;
24337;SDS011;12457;50.832;4.346;2023-09-19T06:45:08;24.65;;;2.90;;
24337;SDS011;12457;50.832;4.346;2023-09-19T06:47:36;17.52;;;3.75;;
24337;SDS011;12457;50.832;4.346;2023-09-19T06:50:02;12.73;;;2.85;;
24337;SDS011;12457;50.832;4.346;2023-09-19T06:52:30;11.40;;;2.45;;
24337;SDS011;12457;50.832;4.346;2023-09-19T06:54:58;15.15;;;2.60;;
24337;SDS011;12457;50.832;4.346;2023-09-19T06:57:24;13.65;;;3.13;;
24337;SDS011;12457;50.832;4.346;2023-09-19T06:59:49;16.27;;;2.95;;
24337;SDS011;12457;50.832;4.346;2023-09-19T07:02:15;15.07;;;3.17;;
24337;SDS011;12457;50.832;4.346;2023-09-19T07:04:41;17.27;;;3.33;;
24337;SDS011;12457;50.832;4.346;2023-09-19T07:07:07;14.40;;;2.53;;
24337;SDS011;12457;50.832;4.346;2023-09-19T07:09:37;15.77;;;2.65;;
24337;SDS011;12457;50.832;4.346;2023-09-19T07:12:08;20.95;;;2.80;;
24337;SDS011;12457;50.832;4.346;2023-09-19T07:14:37;14.20;;;3.47;;
24337;SDS011;12457;50.832;4.346;2023-09-19T07:17:02;15.45;;;2.83;;
24337;SDS011;12457;50.832;4.346;2023-09-19T07:19:28;17.05;;;2.40;;
24337;SDS011;12457;50.832;4.346;2023-09-19T07:21:55;14.23;;;2.75;;
24337;SDS011;12457;50.832;4.346;2023-09-19T07:24:20;17.75;;;3.15;;
24337;SDS011;12457;50.832;4.346;2023-09-19T07:26:58;17.20;;;3.15;;
24337;SDS011;12457;50.832;4.346;2023-09-19T07:29:23;19.48;;;3.05;;
24337;SDS011;12457;50.832;4.346;2023-09-19T07:31:51;15.75;;;2.60;;
24337;SDS011;12457;50.832;4.346;2023-09-19T07:34:17;11.32;;;2.22;;
24337;SDS011;12457;50.832;4.346;2023-09-19T07:36:44;23.05;;;2.70;;
24337;SDS011;12457;50.832;4.346;2023-09-19T07:39:12;22.25;;;3.13;;
24337;SDS011;12457;50.832;4.346;2023-09-19T07:41:38;20.45;;;4.13;;
24337;SDS011;12457;50.832;4.346;2023-09-19T07:44:05;19.45;;;3.30;;
24337;SDS011;12457;50.832;4.346;2023-09-19T07:46:31;16.75;;;3.35;;
24337;SDS011;12457;50.832;4.346;2023-09-19T07:48:57;21.15;;;3.60;;
24337;SDS011;12457;50.832;4.346;2023-09-19T07:51:23;16.20;;;3.17;;
24337;SDS011;12457;50.832;4.346;2023-09-19T07:53:48;13.23;;;3.33;;
24337;SDS011;12457;50.832;4.346;2023-09-19T07:56:23;15.82;;;2.90;;
24337;SDS011;12457;50.832;4.346;2023-09-19T07:58:51;17.83;;;3.85;;
24337;SDS011;12457;50.832;4.346;2023-09-19T08:01:17;13.68;;;2.58;;
24337;SDS011;12457;50.832;4.346;2023-09-19T08:03:42;16.70;;;3.00;;
24337;SDS011;12457;50.832;4.346;2023-09-19T08:06:09;16.08;;;3.22;;
24337;SDS011;12457;50.832;4.346;2023-09-19T08:08:35;17.15;;;2.70;;
24337;SDS011;12457;50.832;4.346;2023-09-19T08:11:04;18.30;;;2.90;;
24337;SDS011;12457;50.832;4.346;2023-09-19T08:13:40;16.77;;;3.60;;
24337;SDS011;12457;50.832;4.346;2023-09-19T08:16:12;17.05;;;4.40;;
24337;SDS011;12457;50.832;4.346;2023-09-19T08:18:40;14.15;;;3.08;;
24337;SDS011;12457;50.832;4.346;2023-09-19T08:21:06;18.13;;;2.60;;
24337;SDS011;12457;50.832;4.346;2023-09-19T08:23:39;13.73;;;2.55;;
24337;SDS011;12457;50.832;4.346;2023-09-19T08:26:05;20.80;;;3.53;;
24337;SDS011;12457;50.832;4.346;2023-09-19T08:28:36;12.35;;;2.50;;
24337;SDS011;12457;50.832;4.346;2023-09-19T08:31:06;22.98;;;3.42;;
24337;SDS011;12457;50.832;4.346;2023-09-19T08:33:34;18.80;;;2.95;;
24337;SDS011;12457;50.832;4.346;2023-09-19T08:36:01;18.20;;;3.05;;
24337;SDS011;12457;50.832;4.346;2023-09-19T08:38:33;20.73;;;3.40;;
24337;SDS011;12457;50.832;4.346;2023-09-19T08:41:00;24.63;;;3.90;;
24337;SDS011;12457;50.832;4.346;2023-09-19T08:43:30;14.93;;;2.60;;
24337;SDS011;12457;50.832;4.346;2023-09-19T08:46:09;12.88;;;3.30;;
24337;SDS011;12457;50.832;4.346;2023-09-19T08:51:45;16.25;;;3.72;;
24337;SDS011;12457;50.832;4.346;2023-09-19T08:57:00;10.60;;;2.47;;
24337;SDS011;12457;50.832;4.346;2023-09-19T08:59:33;15.85;;;3.15;;
24337;SDS011;12457;50.832;4.346;2023-09-19T09:02:00;18.52;;;5.32;;
24337;SDS011;12457;50.832;4.346;2023-09-19T09:04:29;26.15;;;5.38;;
24337;SDS011;12457;50.832;4.346;2023-09-19T09:06:57;21.48;;;5.38;;
24337;SDS011;12457;50.832;4.346;2023-09-19T09:09:25;38.60;;;14.45;;
24337;SDS011;12457;50.832;4.346;2023-09-19T09:11:53;30.33;;;9.45;;
24337;SDS011;12457;50.832;4.346;2023-09-19T09:14:21;87.85;;;54.13;;
24337;SDS011;12457;50.832;4.346;2023-09-19T09:16:48;42.85;;;24.80;;
24337;SDS011;12457;50.832;4.346;2023-09-19T09:19:14;65.55;;;34.30;;
24337;SDS011;12457;50.832;4.346;2023-09-19T09:21:45;43.22;;;28.50;;
24337;SDS011;12457;50.832;4.346;2023-09-19T09:24:31;23.08;;;8.68;;
24337;SDS011;12457;50.832;4.346;2023-09-19T09:26:59;39.53;;;21.83;;
24337;SDS011;12457;50.832;4.346;2023-09-19T09:29:41;30.30;;;14.63;;
24337;SDS011;12457;50.832;4.346;2023-09-19T09:32:28;21.73;;;6.22;;
24337;SDS011;12457;50.832;4.346;2023-09-19T09:34:59;12.50;;;3.60;;
24337;SDS011;12457;50.832;4.346;2023-09-19T09:37:26;21.38;;;4.43;;
24337;SDS011;12457;50.832;4.346;2023-09-19T09:39:57;13.48;;;3.58;;
24337;SDS011;12457;50.832;4.346;2023-09-19T09:42:41;13.40;;;3.33;;
24337;SDS011;12457;50.832;4.346;2023-09-19T09:45:18;15.25;;;2.53;;
24337;SDS011;12457;50.832;4.346;2023-09-19T09:48:03;12.32;;;2.97;;
24337;SDS011;12457;50.832;4.346;2023-09-19T09:50:39;23.15;;;7.25;;
24337;SDS011;12457;50.832;4.346;2023-09-19T09:53:28;19.58;;;3.28;;
24337;SDS011;12457;50.832;4.346;2023-09-19T09:56:09;11.32;;;3.10;;
24337;SDS011;12457;50.832;4.346;2023-09-19T09:58:49;11.75;;;2.78;;
24337;SDS011;12457;50.832;4.346;2023-09-19T10:01:24;9.10;;;1.92;;
24337;SDS011;12457;50.832;4.346;2023-09-19T10:03:58;10.43;;;2.15;;
24337;SDS011;12457;50.832;4.346;2023-09-19T10:06:26;11.70;;;2.08;;
24337;SDS011;12457;50.832;4.346;2023-09-19T10:09:12;13.73;;;2.63;;
24337;SDS011;12457;50.832;4.346;2023-09-19T10:12:03;13.98;;;2.00;;
24337;SDS011;12457;50.832;4.346;2023-09-19T10:14:33;9.32;;;2.33;;
24337;SDS011;12457;50.832;4.346;2023-09-19T10:17:06;15.27;;;4.38;;
24337;SDS011;12457;50.832;4.346;2023-09-19T10:22:38;16.10;;;3.10;;
24337;SDS011;12457;50.832;4.346;2023-09-19T10:25:07;11.27;;;2.30;;
24337;SDS011;12457;50.832;4.346;2023-09-19T10:27:35;12.20;;;2.67;;
24337;SDS011;12457;50.832;4.346;2023-09-19T10:30:04;8.55;;;1.95;;
24337;SDS011;12457;50.832;4.346;2023-09-19T10:32:32;11.63;;;2.03;;
24337;SDS011;12457;50.832;4.346;2023-09-19T10:35:04;11.90;;;1.80;;
24337;SDS011;12457;50.832;4.346;2023-09-19T10:37:32;12.13;;;2.20;;
24337;SDS011;12457;50.832;4.346;2023-09-19T10:39:59;10.98;;;1.67;;
24337;SDS011;12457;50.832;4.346;2023-09-19T10:42:25;12.55;;;2.17;;
24337;SDS011;12457;50.832;4.346;2023-09-19T10:44:56;9.55;;;3.97;;
24337;SDS011;12457;50.832;4.346;2023-09-19T10:47:25;12.75;;;2.85;;
24337;SDS011;12457;50.832;4.346;2023-09-19T10:49:51;16.42;;;6.28;;
24337;SDS011;12457;50.832;4.346;2023-09-19T10:52:19;12.23;;;3.38;;
24337;SDS011;12457;50.832;4.346;2023-09-19T10:54:50;13.23;;;2.22;;
24337;SDS011;12457;50.832;4.346;2023-09-19T10:57:25;10.73;;;2.55;;
24337;SDS011;12457;50.832;4.346;2023-09-19T11:00:08;8.30;;;1.95;;
24337;SDS011;12457;50.832;4.346;2023-09-19T11:05:34;18.38;;;10.95;;
24337;SDS011;12457;50.832;4.346;2023-09-19T11:08:03;21.25;;;10.32;;
24337;SDS011;12457;50.832;4.346;2023-09-19T11:10:48;12.00;;;5.82;;
24337;SDS011;12457;50.832;4.346;2023-09-19T11:13:28;19.30;;;7.38;;
24337;SDS011;12457;50.832;4.346;2023-09-19T11:26:47;8.45;;;2.28;;
24337;SDS011;12457;50.832;4.346;2023-09-19T11:29:30;9.30;;;4.40;;
24337;SDS011;12457;50.832;4.346;2023-09-19T11:31:57;21.58;;;3.88;;
24337;SDS011;12457;50.832;4.346;2023-09-19T11:34:37;14.15;;;6.40;;
24337;SDS011;12457;50.832;4.346;2023-09-19T11:39:37;33.78;;;16.98;;
24337;SDS011;12457;50.832;4.346;2023-09-19T11:48:23;14.77;;;7.18;;
24337;SDS011;12457;50.832;4.346;2023-09-19T11:50:52;22.63;;;8.43;;
24337;SDS011;12457;50.832;4.346;2023-09-19T11:53:20;8.85;;;3.78;;
24337;SDS011;12457;50.832;4.346;2023-09-19T11:55:48;15.35;;;3.80;;
24337;SDS011;12457;50.832;4.346;2023-09-19T11:58:18;8.82;;;2.50;;
24337;SDS011;12457;50.832;4.346;2023-09-19T12:00:45;10.73;;;1.77;;
24337;SDS011;12457;50.832;4.346;2023-09-19T12:03:19;7.13;;;2.28;;
24337;SDS011;12457;50.832;4.346;2023-09-19T12:05:46;7.40;;;2.97;;
24337;SDS011;12457;50.832;4.346;2023-09-19T12:08:14;11.85;;;2.15;;
24337;SDS011;12457;50.832;4.346;2023-09-19T12:10:46;8.55;;;2.75;;
24337;SDS011;12457;50.832;4.346;2023-09-19T12:13:17;11.75;;;1.40;;
24337;SDS011;12457;50.832;4.346;2023-09-19T12:15:46;11.45;;;2.17;;
24337;SDS011;12457;50.832;4.346;2023-09-19T12:18:26;8.20;;;1.60;;
24337;SDS011;12457;50.832;4.346;2023-09-19T12:20:55;9.70;;;1.98;;
24337;SDS011;12457;50.832;4.346;2023-09-19T12:23:23;5.88;;;1.50;;
24337;SDS011;12457;50.832;4.346;2023-09-19T12:25:51;9.02;;;1.42;;
24337;SDS011;12457;50.832;4.346;2023-09-19T12:28:25;5.38;;;1.80;;
24337;SDS011;12457;50.832;4.346;2023-09-19T12:30:55;10.55;;;2.45;;
24337;SDS011;12457;50.832;4.346;2023-09-19T12:33:23;8.77;;;1.95;;
24337;SDS011;12457;50.832;4.346;2023-09-19T12:35:51;6.78;;;2.17;;
24337;SDS011;12457;50.832;4.346;2023-09-19T12:38:25;14.65;;;5.82;;
24337;SDS011;12457;50.832;4.346;2023-09-19T12:40:57;5.50;;;1.73;;
24337;SDS011;12457;50.832;4.346;2023-09-19T12:43:25;8.48;;;1.70;;
24337;SDS011;12457;50.832;4.346;2023-09-19T12:45:52;8.55;;;1.90;;
24337;SDS011;12457;50.832;4.346;2023-09-19T12:50:59;10.23;;;2.30;;
24337;SDS011;12457;50.832;4.346;2023-09-19T12:53:30;5.38;;;1.60;;
24337;SDS011;12457;50.832;4.346;2023-09-19T12:56:03;11.77;;;3.20;;
24337;SDS011;12457;50.832;4.346;2023-09-19T12:58:33;16.05;;;8.07;;
24337;SDS011;12457;50.832;4.346;2023-09-19T13:01:00;12.00;;;4.03;;
24337;SDS011;12457;50.832;4.346;2023-09-19T13:03:30;5.28;;;1.27;;
24337;SDS011;12457;50.832;4.346;2023-09-19T13:06:03;11.07;;;1.33;;
24337;SDS011;12457;50.832;4.346;2023-09-19T13:13:38;11.40;;;1.90;;
24337;SDS011;12457;50.832;4.346;2023-09-19T13:16:07;15.25;;;1.73;;
24337;SDS011;12457;50.832;4.346;2023-09-19T13:18:46;5.75;;;2.00;;
24337;SDS011;12457;50.832;4.346;2023-09-19T13:21:16;5.93;;;1.92;;
24337;SDS011;12457;50.832;4.346;2023-09-19T13:23:55;6.63;;;1.60;;
24337;SDS011;12457;50.832;4.346;2023-09-19T13:26:42;7.13;;;2.90;;
24337;SDS011;12457;50.832;4.346;2023-09-19T13:29:08;5.00;;;1.35;;
24337;SDS011;12457;50.832;4.346;2023-09-19T13:31:33;6.78;;;2.13;;
24337;SDS011;12457;50.832;4.346;2023-09-19T13:33:59;5.25;;;1.13;;
24337;SDS011;12457;50.832;4.346;2023-09-19T13:36:25;11.32;;;2.13;;
24337;SDS011;12457;50.832;4.346;2023-09-19T13:38:50;9.63;;;2.10;;
24337;SDS011;12457;50.832;4.346;2023-09-19T13:41:18;4.15;;;1.42;;
24337;SDS011;12457;50.832;4.346;2023-09-19T13:43:44;5.32;;;1.48;;
24337;SDS011;12457;50.832;4.346;2023-09-19T13:46:14;5.95;;;1.63;;
24337;SDS011;12457;50.832;4.346;2023-09-19T13:48:41;6.07;;;1.50;;
24337;SDS011;12457;50.832;4.346;2023-09-19T13:51:07;9.20;;;2.05;;
24337;SDS011;12457;50.832;4.346;2023-09-19T13:53:32;12.27;;;1.30;;
24337;SDS011;12457;50.832;4.346;2023-09-19T13:56:00;6.45;;;1.70;;
24337;SDS011;12457;50.832;4.346;2023-09-19T13:58:31;5.47;;;1.70;;
24337;SDS011;12457;50.832;4.346;2023-09-19T14:00:59;8.25;;;2.05;;
24337;SDS011;12457;50.832;4.346;2023-09-19T14:03:25;6.55;;;1.52;;
24337;SDS011;12457;50.832;4.346;2023-09-19T14:05:53;4.43;;;1.70;;
24337;SDS011;12457;50.832;4.346;2023-09-19T14:08:19;11.18;;;1.98;;
24337;SDS011;12457;50.832;4.346;2023-09-19T14:10:45;9.57;;;2.17;;
24337;SDS011;12457;50.832;4.346;2023-09-19T14:13:11;9.70;;;2.20;;
24337;SDS011;12457;50.832;4.346;2023-09-19T14:19:00;9.85;;;1.90;;
24337;SDS011;12457;50.832;4.346;2023-09-19T14:21:26;8.90;;;1.88;;
24337;SDS011;12457;50.832;4.346;2023-09-19T14:23:52;7.93;;;1.45;;
24337;SDS011;12457;50.832;4.346;2023-09-19T14:26:19;6.32;;;1.67;;
24337;SDS011;12457;50.832;4.346;2023-09-19T14:28:45;7.28;;;1.80;;
24337;SDS011;12457;50.832;4.346;2023-09-19T14:31:11;6.93;;;1.73;;
24337;SDS011;12457;50.832;4.346;2023-09-19T14:33:37;5.22;;;1.58;;
24337;SDS011;12457;50.832;4.346;2023-09-19T14:36:07;9.80;;;2.10;;
24337;SDS011;12457;50.832;4.346;2023-09-19T14:38:34;5.70;;;1.42;;
24337;SDS011;12457;50.832;4.346;2023-09-19T14:41:01;10.68;;;2.55;;
24337;SDS011;12457;50.832;4.346;2023-09-19T14:43:28;11.88;;;3.00;;
24337;SDS011;12457;50.832;4.346;2023-09-19T14:45:55;6.57;;;1.90;;
24337;SDS011;12457;50.832;4.346;2023-09-19T14:48:22;6.32;;;2.00;;
24337;SDS011;12457;50.832;4.346;2023-09-19T14:50:53;6.10;;;1.48;;
24337;SDS011;12457;50.832;4.346;2023-09-19T14:53:20;8.35;;;1.55;;
24337;SDS011;12457;50.832;4.346;2023-09-19T14:55:46;11.63;;;1.95;;
24337;SDS011;12457;50.832;4.346;2023-09-19T14:58:16;8.60;;;2.60;;
24337;SDS011;12457;50.832;4.346;2023-09-19T15:00:43;10.60;;;1.90;;
24337;SDS011;12457;50.832;4.346;2023-09-19T15:03:10;6.47;;;2.17;;
24337;SDS011;12457;50.832;4.346;2023-09-19T15:05:36;7.75;;;2.08;;
24337;SDS011;12457;50.832;4.346;2023-09-19T15:08:02;11.43;;;2.28;;
24337;SDS011;12457;50.832;4.346;2023-09-19T15:10:28;6.47;;;1.88;;
24337;SDS011;12457;50.832;4.346;2023-09-19T15:12:55;9.73;;;1.63;;
24337;SDS011;12457;50.832;4.346;2023-09-19T15:15:21;13.52;;;4.68;;
24337;SDS011;12457;50.832;4.346;2023-09-19T15:17:47;11.15;;;3.28;;
24337;SDS011;12457;50.832;4.346;2023-09-19T15:20:12;27.95;;;13.15;;
24337;SDS011;12457;50.832;4.346;2023-09-19T15:22:39;25.38;;;12.48;;
24337;SDS011;12457;50.832;4.346;2023-09-19T15:25:04;13.88;;;8.57;;
24337;SDS011;12457;50.832;4.346;2023-09-19T15:27:30;8.65;;;3.28;;
24337;SDS011;12457;50.832;4.346;2023-09-19T15:30:02;21.05;;;12.40;;
24337;SDS011;12457;50.832;4.346;2023-09-19T15:32:29;15.65;;;5.63;;
24337;SDS011;12457;50.832;4.346;2023-09-19T15:34:56;11.07;;;2.65;;
24337;SDS011;12457;50.832;4.346;2023-09-19T15:37:21;15.27;;;4.32;;
24337;SDS011;12457;50.832;4.346;2023-09-19T15:39:47;8.27;;;2.67;;
24337;SDS011;12457;50.832;4.346;2023-09-19T15:42:15;12.73;;;2.38;;
24337;SDS011;12457;50.832;4.346;2023-09-19T15:44:54;12.75;;;2.80;;
24337;SDS011;12457;50.832;4.346;2023-09-19T15:47:20;9.40;;;2.20;;
24337;SDS011;12457;50.832;4.346;2023-09-19T15:49:47;9.70;;;2.17;;
24337;SDS011;12457;50.832;4.346;2023-09-19T15:52:14;12.48;;;4.20;;
24337;SDS011;12457;50.832;4.346;2023-09-19T15:54:44;22.70;;;10.15;;
24337;SDS011;12457;50.832;4.346;2023-09-19T15:57:10;19.05;;;8.35;;
24337;SDS011;12457;50.832;4.346;2023-09-19T15:59:37;8.40;;;2.05;;
24337;SDS011;12457;50.832;4.346;2023-09-19T16:02:04;12.68;;;4.68;;
24337;SDS011;12457;50.832;4.346;2023-09-19T16:04:30;14.60;;;5.45;;